Terminal Island, California
Current Conditions -  °F | °C
As of 7:53 PM on Sunday 25 Jan 2015 (Local Time) from KLGB Reporting Station
Clear Clear  
Wind Chill: 67°   Ceiling: Unl
Heat Index: 67°   Visibility: 10mi
Dew Point: 35°   Wind: 3mph
Humidity: 31%   Direction: 60°ENE
Pressure: 30.02"   Gusts: NA
Location:  33.7377°N, 118.291°W
Report Text: KLGB 260353Z 06003KT 10SM CLR 19/02 A3002 RMK AO2 SLP165 T01940017
Loading
Personal Weather Stations






























Interactive Weather Map New forecast layout! Learn more

10-Day Weather Forecast

Advertisements
Track Severe Weather on mobile